Time;durP1;ratioP1;P1;durP2;ratioP2;P2;SDS_P1;SDS_P2;PMS_P1;PMS_P2;Temp;Humidity;BMP_temperature;BMP_pressure;BME280_temperature;BME280_humidity;BME280_pressure;Samples;Min_cycle;Max_cycle;Signal;HPM_P1;HPM_P2
2021/11/25 00:00:38;;;;;;;13.63;8.60;;;9.30;75.80;;;;;;5054502;28;20021;-79
2021/11/25 00:03:05;;;;;;;14.63;9.65;;;9.30;75.80;;;;;;5069732;28;20074;-79
2021/11/25 00:05:31;;;;;;;16.38;9.48;;;9.30;75.80;;;;;;5052921;28;20032;-79
2021/11/25 00:07:56;;;;;;;14.23;8.20;;;9.30;75.80;;;;;;5053367;28;20395;-80
2021/11/25 00:10:22;;;;;;;13.80;8.55;;;9.30;75.80;;;;;;5052990;28;20025;-79
2021/11/25 00:12:48;;;;;;;14.43;8.57;;;9.20;75.70;;;;;;5053594;28;20075;-79
2021/11/25 00:15:14;;;;;;;12.65;8.30;;;9.20;75.80;;;;;;5052691;28;20112;-79
2021/11/25 00:17:40;;;;;;;12.75;8.48;;;9.20;75.70;;;;;;5036657;28;20070;-79
2021/11/25 00:20:09;;;;;;;13.00;8.85;;;9.20;75.70;;;;;;5053787;28;20040;-79
2021/11/25 00:22:35;;;;;;;12.90;8.85;;;9.20;75.80;;;;;;5054312;28;20032;-79
2021/11/25 00:25:02;;;;;;;13.52;8.50;;;9.10;75.70;;;;;;5052611;28;20036;-78
2021/11/25 00:27:28;;;;;;;12.98;9.10;;;9.10;75.70;;;;;;5054264;28;20025;-79
2021/11/25 00:29:54;;;;;;;14.18;9.38;;;9.10;75.70;;;;;;5053313;28;20416;-80
2021/11/25 00:32:20;;;;;;;12.45;8.43;;;9.10;75.70;;;;;;5052922;28;20041;-79
2021/11/25 00:34:45;;;;;;;16.15;9.30;;;9.00;75.60;;;;;;5052833;28;20491;-79
2021/11/25 00:37:12;;;;;;;13.68;8.45;;;9.00;75.60;;;;;;5052608;28;20136;-79
2021/11/25 00:39:38;;;;;;;13.60;8.68;;;9.00;75.60;;;;;;5052920;28;20032;-79
2021/11/25 00:42:05;;;;;;;14.65;8.68;;;9.00;75.70;;;;;;5052603;28;20049;-78
2021/11/25 00:44:31;;;;;;;14.60;8.73;;;9.00;75.70;;;;;;5052408;28;20025;-79
2021/11/25 00:46:57;;;;;;;13.52;8.93;;;9.00;75.70;;;;;;5052668;28;20132;-79
2021/11/25 00:49:23;;;;;;;12.98;8.30;;;8.90;75.60;;;;;;5052479;28;20024;-79
2021/11/25 00:51:49;;;;;;;13.38;8.52;;;8.90;75.60;;;;;;5053507;28;20082;-81
2021/11/25 00:54:14;;;;;;;12.43;8.00;;;8.90;75.60;;;;;;5052378;28;20025;-80
2021/11/25 00:56:40;;;;;;;13.30;9.15;;;8.90;75.70;;;;;;5052891;28;20029;-80
2021/11/25 00:59:06;;;;;;;13.65;9.18;;;8.90;75.70;;;;;;5052490;28;20033;-79
2021/11/25 01:01:32;;;;;;;13.25;8.13;;;8.90;75.70;;;;;;5053306;28;20039;-80
2021/11/25 01:03:58;;;;;;;14.15;8.68;;;8.80;75.70;;;;;;5052461;28;20389;-79
2021/11/25 01:06:24;;;;;;;12.55;8.40;;;8.80;76.30;;;;;;5052703;28;20032;-78
2021/11/25 01:08:50;;;;;;;11.43;7.75;;;8.80;75.60;;;;;;5052141;28;20378;-80
2021/11/25 01:11:16;;;;;;;13.20;8.48;;;8.80;75.70;;;;;;5052572;28;20032;-79
2021/11/25 01:13:42;;;;;;;13.90;8.30;;;8.80;75.70;;;;;;5035948;28;20493;-79
2021/11/25 01:16:08;;;;;;;12.90;7.82;;;8.70;75.60;;;;;;5069858;28;20092;-79
2021/11/25 01:18:34;;;;;;;12.18;8.00;;;8.70;75.60;;;;;;5052236;28;20541;-80
2021/11/25 01:21:00;;;;;;;12.65;7.97;;;8.70;75.70;;;;;;5052218;28;20124;-79
2021/11/25 01:23:28;;;;;;;12.68;7.93;;;8.70;75.60;;;;;;5051937;28;20087;-79
2021/11/25 01:25:55;;;;;;;11.23;7.57;;;8.70;75.70;;;;;;5052295;28;20110;-80
2021/11/25 01:28:22;;;;;;;14.13;8.65;;;8.70;75.70;;;;;;5052267;28;20033;-81
2021/11/25 01:30:51;;;;;;;15.10;8.35;;;8.70;75.70;;;;;;5052279;28;20090;-80
2021/11/25 01:33:19;;;;;;;12.35;7.65;;;8.60;75.70;;;;;;5053009;28;20091;-79
2021/11/25 01:35:46;;;;;;;13.38;8.88;;;8.60;75.70;;;;;;5052196;28;20432;-79
2021/11/25 01:38:13;;;;;;;12.63;8.07;;;8.60;75.70;;;;;;5051737;28;20040;-80
2021/11/25 01:40:41;;;;;;;11.82;7.60;;;8.60;75.70;;;;;;5035668;28;20508;-79
2021/11/25 01:43:07;;;;;;;12.75;8.20;;;8.60;75.70;;;;;;5055118;28;20033;-80
2021/11/25 01:45:33;;;;;;;12.75;7.80;;;8.60;75.70;;;;;;5055931;28;20037;-80
2021/11/25 01:47:59;;;;;;;13.57;8.23;;;8.50;75.60;;;;;;5056982;28;20094;-79
2021/11/25 01:50:27;;;;;;;12.35;8.35;;;8.50;75.70;;;;;;5055581;28;20036;-79
2021/11/25 01:52:53;;;;;;;10.52;6.72;;;8.50;75.70;;;;;;5056823;28;20016;-79
2021/11/25 01:55:21;;;;;;;11.77;7.45;;;8.50;75.70;;;;;;5055903;28;20039;-79
2021/11/25 01:57:49;;;;;;;10.35;7.25;;;8.50;75.70;;;;;;5055821;28;20071;-79
2021/11/25 02:00:32;;;;;;;10.07;7.03;;;8.50;75.70;;;;;;5056673;28;20029;-80
2021/11/25 02:02:59;;;;;;;10.88;6.97;;;8.50;75.80;;;;;;5055821;28;20040;-80
2021/11/25 02:05:26;;;;;;;10.65;7.25;;;8.50;75.70;;;;;;5056600;28;20033;-79
2021/11/25 02:07:52;;;;;;;12.13;7.10;;;8.40;75.70;;;;;;5072087;28;20033;-79
2021/11/25 02:10:18;;;;;;;11.38;7.45;;;8.40;75.70;;;;;;5055723;28;20028;-79
2021/11/25 02:12:45;;;;;;;11.32;6.90;;;8.40;75.70;;;;;;5055952;28;20436;-79
2021/11/25 02:15:12;;;;;;;10.23;6.93;;;8.40;75.70;;;;;;5056596;28;20024;-82
2021/11/25 02:17:38;;;;;;;11.57;7.50;;;8.40;75.80;;;;;;5072078;28;20029;-79
2021/11/25 02:20:07;;;;;;;11.82;7.47;;;8.40;75.80;;;;;;5055468;28;20029;-80
2021/11/25 02:22:33;;;;;;;10.80;7.00;;;8.40;75.80;;;;;;5055988;28;20067;-79
2021/11/25 02:24:59;;;;;;;10.05;6.63;;;8.40;75.80;;;;;;5055203;28;20025;-79
2021/11/25 02:27:25;;;;;;;10.93;6.85;;;8.40;75.80;;;;;;5055534;28;20040;-80
2021/11/25 02:29:50;;;;;;;11.65;6.95;;;8.40;75.80;;;;;;5056073;28;20424;-79
2021/11/25 02:32:44;;;;;;;11.15;7.63;;;8.30;75.80;;;;;;5055366;28;20523;-81
2021/11/25 02:35:32;;;;;;;11.20;7.45;;;8.30;76.00;;;;;;5070462;28;20048;-82
2021/11/25 02:37:59;;;;;;;10.02;6.57;;;8.30;75.90;;;;;;5072017;28;20045;-80
2021/11/25 02:40:34;;;;;;;11.25;6.80;;;8.30;75.80;;;;;;5055171;28;20060;-79
2021/11/25 02:43:05;;;;;;;;;;;8.30;75.90;;;;;;5056728;28;20020;-80
2021/11/25 02:45:32;;;;;;;9.25;6.15;;;8.30;75.80;;;;;;5055118;28;20076;-80
2021/11/25 02:47:59;;;;;;;9.98;6.88;;;8.30;75.80;;;;;;5055271;28;20037;-81
2021/11/25 02:50:26;;;;;;;9.93;6.22;;;8.20;75.90;;;;;;5054860;28;20645;-80
2021/11/25 02:52:52;;;;;;;12.23;7.53;;;8.20;76.00;;;;;;5054533;28;20087;-79
2021/11/25 02:55:19;;;;;;;8.88;6.07;;;8.20;76.00;;;;;;5054919;28;20123;-79
2021/11/25 02:57:45;;;;;;;11.45;7.63;;;8.20;76.00;;;;;;5054594;28;20105;-80
2021/11/25 03:00:20;;;;;;;11.38;8.15;;;8.20;76.00;;;;;;5055793;28;20115;-79
2021/11/25 03:02:46;;;;;;;11.20;7.65;;;8.30;76.10;;;;;;5055684;28;20120;-79
2021/11/25 03:05:14;;;;;;;11.13;7.50;;;8.20;76.00;;;;;;5055261;28;20366;-80
2021/11/25 03:07:40;;;;;;;10.18;6.88;;;8.20;76.00;;;;;;5054587;28;20144;-79
2021/11/25 03:10:06;;;;;;;12.70;8.32;;;8.20;76.00;;;;;;5054931;28;20100;-80
2021/11/25 03:12:32;;;;;;;10.38;7.68;;;8.20;76.00;;;;;;5054662;28;20082;-80
2021/11/25 03:14:57;;;;;;;10.25;7.40;;;8.20;76.00;;;;;;5071092;28;20103;-79
2021/11/25 03:17:23;;;;;;;10.18;6.68;;;8.20;76.10;;;;;;5054729;28;20043;-79
2021/11/25 03:19:49;;;;;;;10.73;6.93;;;8.20;76.00;;;;;;5054258;28;20116;-80
2021/11/25 03:22:15;;;;;;;11.25;7.28;;;8.20;76.10;;;;;;5054207;28;20059;-81
2021/11/25 03:24:40;;;;;;;10.65;7.35;;;8.20;76.10;;;;;;5053816;28;20056;-79
2021/11/25 03:27:06;;;;;;;11.32;7.88;;;8.20;76.10;;;;;;5038128;28;20037;-79
2021/11/25 03:29:32;;;;;;;10.80;7.47;;;8.20;76.10;;;;;;5053936;28;20029;-79
2021/11/25 03:31:58;;;;;;;10.30;7.53;;;8.20;76.10;;;;;;5053920;28;20031;-79
2021/11/25 03:34:24;;;;;;;10.18;7.47;;;8.20;76.10;;;;;;5054224;28;20079;-80
2021/11/25 03:36:49;;;;;;;12.20;7.93;;;8.10;76.10;;;;;;5054659;28;20032;-79
2021/11/25 03:39:15;;;;;;;12.00;8.00;;;8.10;76.10;;;;;;5054312;28;20033;-81
2021/11/25 03:41:41;;;;;;;11.65;7.65;;;8.20;76.10;;;;;;5054424;28;20032;-80
2021/11/25 03:44:09;;;;;;;12.20;7.82;;;8.10;76.10;;;;;;5054612;28;20021;-79
2021/11/25 03:46:35;;;;;;;11.48;7.65;;;8.10;76.10;;;;;;5053937;28;20405;-79
2021/11/25 03:49:02;;;;;;;10.82;7.38;;;8.10;76.10;;;;;;5070076;28;20029;-78
2021/11/25 03:51:28;;;;;;;11.88;8.27;;;8.10;76.10;;;;;;5053822;28;20146;-79
2021/11/25 03:53:54;;;;;;;12.05;7.57;;;8.10;76.10;;;;;;5053756;28;20053;-79
2021/11/25 03:56:20;;;;;;;10.52;7.38;;;8.10;76.20;;;;;;5054056;28;20033;-79
2021/11/25 03:58:46;;;;;;;11.02;7.82;;;8.10;76.20;;;;;;5037062;28;20032;-79
2021/11/25 04:01:13;;;;;;;11.95;7.70;;;8.10;76.20;;;;;;5070557;28;20378;-79
2021/11/25 04:03:39;;;;;;;10.63;7.57;;;8.10;76.20;;;;;;5053728;28;20470;-79
2021/11/25 04:06:05;;;;;;;11.35;8.38;;;8.10;76.20;;;;;;5053090;28;20037;-79
2021/11/25 04:08:31;;;;;;;10.77;7.68;;;8.10;76.20;;;;;;5069855;28;20544;-79
2021/11/25 04:10:57;;;;;;;11.30;7.72;;;8.10;76.30;;;;;;5053427;28;20025;-81
2021/11/25 04:13:23;;;;;;;12.77;8.02;;;8.10;76.30;;;;;;5053867;28;20031;-79
2021/11/25 04:15:49;;;;;;;11.60;8.20;;;8.10;76.30;;;;;;5053255;28;20435;-79
2021/11/25 04:18:15;;;;;;;10.20;7.13;;;8.10;76.30;;;;;;5054089;28;20087;-79
2021/11/25 04:20:41;;;;;;;10.35;7.40;;;8.10;76.30;;;;;;5036367;28;20029;-79
2021/11/25 04:23:07;;;;;;;12.63;8.52;;;8.10;76.30;;;;;;5053148;28;20079;-81
2021/11/25 04:25:34;;;;;;;11.98;8.05;;;8.10;76.40;;;;;;5036412;28;20055;-79
2021/11/25 04:28:01;;;;;;;10.65;7.70;;;8.10;76.30;;;;;;5053881;28;20091;-79
2021/11/25 04:35:58;;;;;;;10.67;7.77;;;8.10;76.30;;;;;;5053260;28;20044;-81
2021/11/25 04:38:24;;;;;;;10.57;8.10;;;8.10;76.30;;;;;;5052846;28;20051;-79
2021/11/25 04:40:56;;;;;;;12.02;8.45;;;8.10;76.40;;;;;;5069480;28;20063;-78
2021/11/25 04:43:24;;;;;;;10.30;7.70;;;8.00;77.00;;;;;;5052462;28;20089;-81
2021/11/25 04:45:51;;;;;;;11.07;7.82;;;8.00;76.30;;;;;;5052967;28;20029;-79
2021/11/25 04:48:19;;;;;;;11.82;8.20;;;8.10;76.40;;;;;;5053550;28;20041;-79
2021/11/25 04:50:45;;;;;;;11.38;7.60;;;8.10;76.40;;;;;;5053999;28;20466;-79
2021/11/25 04:53:13;;;;;;;10.60;7.88;;;8.10;76.40;;;;;;5052684;28;20197;-79
2021/11/25 04:55:40;;;;;;;11.35;8.25;;;8.10;76.40;;;;;;5052848;28;20025;-80
2021/11/25 04:58:06;;;;;;;10.88;8.27;;;8.10;76.40;;;;;;5052407;28;20029;-80
2021/11/25 05:00:32;;;;;;;11.45;8.75;;;8.10;76.40;;;;;;5053266;28;20028;-80
2021/11/25 05:02:58;;;;;;;10.88;8.20;;;8.00;76.40;;;;;;5036068;28;20136;-79
2021/11/25 05:05:24;;;;;;;12.18;8.55;;;8.00;76.40;;;;;;5035849;28;20029;-79
2021/11/25 05:07:50;;;;;;;12.18;8.75;;;8.00;76.40;;;;;;5052319;28;20039;-79
2021/11/25 05:10:16;;;;;;;12.30;8.32;;;8.00;76.40;;;;;;5053476;28;20381;-78
2021/11/25 05:12:42;;;;;;;10.77;8.13;;;8.00;76.40;;;;;;5053721;28;20492;-79
2021/11/25 05:15:10;;;;;;;11.25;8.15;;;8.00;76.40;;;;;;5053324;28;20080;-79
2021/11/25 05:17:37;;;;;;;11.45;8.73;;;8.00;76.40;;;;;;5052151;28;20029;-83
2021/11/25 05:20:05;;;;;;;11.85;8.93;;;8.00;76.40;;;;;;5052724;28;20064;-79
2021/11/25 05:22:31;;;;;;;10.90;8.35;;;8.00;76.40;;;;;;5053439;28;20033;-82
2021/11/25 05:24:57;;;;;;;11.75;8.32;;;8.00;76.40;;;;;;5036362;28;20033;-80
2021/11/25 05:27:23;;;;;;;11.93;9.07;;;8.00;76.40;;;;;;5053394;28;20537;-82
2021/11/25 05:29:49;;;;;;;12.23;8.80;;;8.00;76.40;;;;;;5053755;28;20126;-78
2021/11/25 05:32:16;;;;;;;12.43;9.15;;;8.10;76.50;;;;;;5052291;28;20123;-78
2021/11/25 05:34:45;;;;;;;12.00;8.77;;;8.00;76.40;;;;;;5052447;28;20033;-77
2021/11/25 05:37:12;;;;;;;10.68;8.45;;;8.00;77.10;;;;;;5051718;28;20053;-79
2021/11/25 05:39:40;;;;;;;11.70;9.30;;;8.00;76.40;;;;;;5051961;28;20478;-79
2021/11/25 05:42:06;;;;;;;10.88;8.38;;;8.00;76.70;;;;;;5068147;28;20037;-79
2021/11/25 05:44:32;;;;;;;11.80;8.77;;;8.00;76.50;;;;;;5052459;28;20029;-80
2021/11/25 05:46:58;;;;;;;12.05;9.30;;;8.00;76.40;;;;;;5035220;28;20508;-81
2021/11/25 05:49:23;;;;;;;11.43;8.80;;;8.00;76.40;;;;;;5052351;28;20032;-79
2021/11/25 05:51:49;;;;;;;12.27;9.30;;;8.00;76.50;;;;;;5051413;28;20039;-79
2021/11/25 05:54:15;;;;;;;11.90;9.23;;;8.00;76.50;;;;;;5051503;28;20382;-80
2021/11/25 05:56:41;;;;;;;12.60;9.55;;;8.00;76.50;;;;;;5051025;28;20032;-79
2021/11/25 05:59:07;;;;;;;11.27;9.13;;;8.00;76.50;;;;;;5051215;28;20025;-79
2021/11/25 06:01:32;;;;;;;11.95;8.80;;;8.00;76.50;;;;;;5035830;28;20036;-77
2021/11/25 06:03:58;;;;;;;12.05;8.90;;;8.00;76.50;;;;;;5052522;28;20029;-78
2021/11/25 06:06:24;;;;;;;12.65;9.63;;;8.00;76.50;;;;;;5051948;28;20044;-78
2021/11/25 06:08:50;;;;;;;13.55;10.18;;;8.00;76.50;;;;;;5051405;28;20361;-78
2021/11/25 06:11:16;;;;;;;12.60;8.98;;;8.00;76.50;;;;;;5052585;28;20032;-77
2021/11/25 06:13:43;;;;;;;12.13;9.35;;;8.00;76.50;;;;;;5069005;28;20029;-77
2021/11/25 06:16:09;;;;;;;10.80;8.32;;;8.00;76.50;;;;;;5051922;28;20039;-78
2021/11/25 06:18:34;;;;;;;11.32;9.13;;;8.00;76.50;;;;;;5053231;28;20025;-78
2021/11/25 06:21:00;;;;;;;13.20;9.88;;;8.00;76.50;;;;;;5051743;28;20537;-77
2021/11/25 06:23:26;;;;;;;12.43;9.45;;;8.10;76.60;;;;;;5052430;28;20091;-77
2021/11/25 06:25:52;;;;;;;11.45;8.65;;;8.00;76.50;;;;;;5053077;28;20600;-77
2021/11/25 06:28:18;;;;;;;13.13;9.73;;;8.00;76.50;;;;;;5053626;28;20021;-79
2021/11/25 06:30:44;;;;;;;12.13;9.57;;;8.00;76.60;;;;;;5055863;28;20025;-77
2021/11/25 06:33:10;;;;;;;12.95;9.55;;;8.00;76.50;;;;;;5055399;28;20048;-76
2021/11/25 06:35:36;;;;;;;15.73;10.93;;;8.00;76.60;;;;;;5055337;28;20041;-77
2021/11/25 06:38:02;;;;;;;13.38;9.57;;;8.00;76.60;;;;;;5056418;28;20555;-77
2021/11/25 06:40:31;;;;;;;13.20;9.00;;;8.00;76.50;;;;;;5055839;28;20033;-76
2021/11/25 06:42:58;;;;;;;13.23;10.25;;;8.00;76.60;;;;;;5055782;28;20029;-78
2021/11/25 06:45:25;;;;;;;11.45;9.02;;;8.00;76.60;;;;;;5055422;28;20037;-77
2021/11/25 06:47:51;;;;;;;12.25;9.43;;;8.00;76.60;;;;;;5055401;28;20033;-77
2021/11/25 06:50:20;;;;;;;12.65;9.70;;;8.00;76.60;;;;;;5055120;28;20024;-77
2021/11/25 06:52:46;;;;;;;13.52;10.25;;;8.00;76.60;;;;;;5055087;28;20025;-77
2021/11/25 06:55:13;;;;;;;12.43;9.98;;;8.00;76.60;;;;;;5055289;28;20041;-77
2021/11/25 06:57:39;;;;;;;14.20;10.07;;;8.10;76.70;;;;;;5055108;28;20361;-78
2021/11/25 07:00:11;;;;;;;13.45;9.85;;;8.00;76.60;;;;;;5054532;28;20490;-78
2021/11/25 07:02:37;;;;;;;13.57;10.07;;;8.00;76.60;;;;;;5056319;28;20025;-78
2021/11/25 07:05:05;;;;;;;12.52;9.43;;;8.00;76.50;;;;;;5054603;28;20059;-78
2021/11/25 07:07:31;;;;;;;14.10;10.43;;;8.00;76.60;;;;;;5054195;28;20440;-77
2021/11/25 07:09:57;;;;;;;14.25;10.05;;;8.00;76.60;;;;;;5037985;28;20029;-77
2021/11/25 07:12:23;;;;;;;13.93;9.82;;;8.00;76.60;;;;;;5055201;28;20083;-78
2021/11/25 07:14:49;;;;;;;13.57;10.10;;;8.00;76.60;;;;;;5054564;28;20367;-77
2021/11/25 07:17:15;;;;;;;13.32;10.30;;;8.00;76.60;;;;;;5055610;28;20428;-78
2021/11/25 07:19:41;;;;;;;13.98;10.50;;;8.00;76.60;;;;;;5055805;28;20048;-78
2021/11/25 07:22:07;;;;;;;12.85;9.82;;;8.00;76.70;;;;;;5054604;28;20454;-78
2021/11/25 07:24:32;;;;;;;12.38;9.93;;;8.00;76.60;;;;;;5054223;28;20394;-78
2021/11/25 07:26:58;;;;;;;13.02;9.50;;;8.00;77.30;;;;;;5055318;28;20526;-78
2021/11/25 07:29:24;;;;;;;13.38;9.57;;;8.00;76.60;;;;;;5054336;28;20028;-77
2021/11/25 07:31:51;;;;;;;13.68;10.23;;;8.00;76.60;;;;;;5054215;28;20116;-77
2021/11/25 07:34:16;;;;;;;12.75;10.18;;;8.00;76.60;;;;;;5055289;28;20029;-77
2021/11/25 07:36:42;;;;;;;13.15;10.18;;;8.00;76.60;;;;;;5055842;28;20106;-76
2021/11/25 07:39:08;;;;;;;13.68;10.18;;;8.00;76.60;;;;;;5052538;28;20035;-77
2021/11/25 07:41:38;;;;;;;12.90;9.63;;;8.00;76.60;;;;;;5037293;28;20063;-77
2021/11/25 07:44:04;;;;;;;12.82;10.02;;;8.00;76.60;;;;;;5053724;28;20056;-77
2021/11/25 07:46:30;;;;;;;12.23;9.43;;;8.00;76.60;;;;;;5070235;28;20029;-79
2021/11/25 07:48:58;;;;;;;13.60;10.02;;;8.00;76.60;;;;;;5070222;28;20116;-78
2021/11/25 07:51:24;;;;;;;13.15;10.18;;;8.00;76.60;;;;;;5054545;28;20025;-79
2021/11/25 07:53:49;;;;;;;13.70;10.63;;;8.00;76.60;;;;;;5070679;28;20049;-80
2021/11/25 07:56:15;;;;;;;13.90;10.65;;;8.00;76.60;;;;;;5053717;28;20068;-79
2021/11/25 07:58:41;;;;;;;12.52;9.88;;;8.00;76.60;;;;;;5037237;28;20480;-78
2021/11/25 08:01:07;;;;;;;12.65;9.60;;;8.00;76.60;;;;;;5053776;28;20033;-80
2021/11/25 08:03:32;;;;;;;13.07;9.65;;;8.00;76.60;;;;;;5053372;28;20033;-77
2021/11/25 08:05:58;;;;;;;12.45;10.02;;;8.00;76.60;;;;;;5053271;28;20036;-78
2021/11/25 08:08:24;;;;;;;13.60;10.77;;;8.00;76.60;;;;;;5054301;28;20025;-79
2021/11/25 08:10:50;;;;;;;13.30;10.10;;;8.00;76.60;;;;;;5053639;28;20032;-78
2021/11/25 08:13:16;;;;;;;11.38;9.60;;;8.00;76.70;;;;;;5053500;28;20025;-78
2021/11/25 08:15:42;;;;;;;13.13;9.77;;;8.00;76.70;;;;;;5053444;28;20487;-79
2021/11/25 08:18:08;;;;;;;13.38;10.38;;;8.00;76.60;;;;;;5069348;28;20032;-78
2021/11/25 08:20:34;;;;;;;13.90;10.80;;;8.00;76.60;;;;;;5054153;28;20497;-78
2021/11/25 08:23:00;;;;;;;12.43;9.95;;;8.00;76.60;;;;;;5053850;28;20121;-78
2021/11/25 08:25:26;;;;;;;14.40;10.75;;;8.00;76.60;;;;;;5036481;28;20043;-78
2021/11/25 08:27:57;;;;;;;13.15;10.55;;;8.00;76.60;;;;;;5054389;28;20112;-78
2021/11/25 08:30:24;;;;;;;13.15;9.93;;;8.00;77.30;;;;;;5052822;28;20040;-78
2021/11/25 08:32:50;;;;;;;12.90;10.18;;;8.00;76.60;;;;;;5052792;28;20035;-78
2021/11/25 08:35:16;;;;;;;13.30;9.70;;;8.10;76.70;;;;;;5036303;28;20037;-78
2021/11/25 08:37:42;;;;;;;13.25;10.63;;;8.00;76.70;;;;;;5052394;28;20504;-81
2021/11/25 08:40:11;;;;;;;13.70;10.07;;;8.00;76.70;;;;;;5052818;28;20231;-78
2021/11/25 08:42:37;;;;;;;13.05;10.02;;;8.00;76.70;;;;;;5052644;28;20021;-78
2021/11/25 08:45:05;;;;;;;13.43;10.43;;;8.10;76.70;;;;;;5052596;28;20032;-80
2021/11/25 08:47:31;;;;;;;12.68;9.80;;;8.10;77.40;;;;;;5054472;28;20029;-78
2021/11/25 08:49:56;;;;;;;12.75;10.10;;;8.10;76.70;;;;;;5054101;28;20035;-78
2021/11/25 08:52:22;;;;;;;13.02;10.43;;;8.00;76.70;;;;;;5052409;28;20025;-77
2021/11/25 08:54:48;;;;;;;13.90;10.05;;;8.10;76.70;;;;;;5035892;28;20508;-79
2021/11/25 08:57:15;;;;;;;12.40;10.25;;;8.10;76.70;;;;;;5035691;28;20061;-77
2021/11/25 08:59:42;;;;;;;13.55;10.43;;;8.10;76.70;;;;;;5052832;28;20029;-77
2021/11/25 09:02:09;;;;;;;13.30;10.10;;;8.10;76.70;;;;;;5068751;28;20033;-78
2021/11/25 09:04:35;;;;;;;13.68;10.68;;;8.10;76.70;;;;;;5035522;28;20099;-78
2021/11/25 09:07:02;;;;;;;13.45;10.15;;;8.10;76.70;;;;;;5035459;28;20063;-78
2021/11/25 09:09:28;;;;;;;14.35;11.07;;;8.10;76.70;;;;;;5036016;28;20025;-78
2021/11/25 09:11:53;;;;;;;14.95;10.90;;;8.10;76.70;;;;;;5052058;28;20389;-77
2021/11/25 09:14:19;;;;;;;13.15;10.35;;;8.10;76.70;;;;;;5035691;28;20033;-78
2021/11/25 09:16:47;;;;;;;13.88;10.57;;;8.10;76.70;;;;;;5052565;28;20029;-79
2021/11/25 09:19:13;;;;;;;13.07;10.25;;;8.10;76.70;;;;;;5052603;28;20025;-79
2021/11/25 09:21:39;;;;;;;13.45;10.35;;;8.10;76.70;;;;;;5052115;28;20082;-79
2021/11/25 09:24:06;;;;;;;13.10;10.13;;;8.20;76.80;;;;;;5053219;28;20097;-79
2021/11/25 09:26:34;;;;;;;13.38;11.00;;;8.20;76.80;;;;;;5053428;28;20037;-79
2021/11/25 09:29:00;;;;;;;13.35;9.90;;;8.20;76.80;;;;;;5035572;28;20032;-80
2021/11/25 09:31:27;;;;;;;13.20;10.07;;;8.20;76.80;;;;;;5053412;28;20037;-78
2021/11/25 09:33:53;;;;;;;13.48;10.38;;;8.20;76.80;;;;;;5054120;28;20028;-78
2021/11/25 09:36:22;;;;;;;12.20;9.52;;;8.20;76.80;;;;;;5086150;28;20033;-79
2021/11/25 09:38:48;;;;;;;12.35;9.57;;;8.20;76.80;;;;;;5054026;28;20128;-81
2021/11/25 09:41:14;;;;;;;13.52;10.40;;;8.20;76.80;;;;;;5053218;28;20021;-79
2021/11/25 09:43:41;;;;;;;12.07;9.88;;;8.20;76.80;;;;;;5085282;28;20120;-81
2021/11/25 09:46:08;;;;;;;12.82;10.20;;;8.20;76.80;;;;;;5051853;28;20044;-79
2021/11/25 09:48:34;;;;;;;13.00;10.38;;;8.20;76.80;;;;;;5052473;28;20029;-79
2021/11/25 09:51:00;;;;;;;12.50;9.57;;;8.30;76.80;;;;;;5069496;28;20032;-79
2021/11/25 09:53:27;;;;;;;13.77;9.95;;;8.30;76.90;;;;;;5052259;28;20025;-79
2021/11/25 09:55:55;;;;;;;14.02;10.82;;;8.30;76.90;;;;;;5035226;28;20032;-79
2021/11/25 09:58:24;;;;;;;12.88;10.07;;;8.30;76.80;;;;;;5052786;28;20059;-79
2021/11/25 10:00:56;;;;;;;13.32;11.07;;;8.30;76.90;;;;;;5052410;28;20068;-79
2021/11/25 10:03:22;;;;;;;12.32;9.13;;;8.30;76.90;;;;;;5055223;28;20466;-78
2021/11/25 10:05:54;;;;;;;12.60;9.45;;;8.30;76.80;;;;;;5055971;28;20029;-78
2021/11/25 10:08:22;;;;;;;11.98;9.88;;;8.30;76.90;;;;;;5056524;28;20036;-79
2021/11/25 10:11:00;;;;;;;11.73;9.32;;;8.30;76.80;;;;;;5055625;28;20469;-78
2021/11/25 10:13:38;;;;;;;11.43;9.60;;;8.30;76.90;;;;;;5056400;28;20365;-80
2021/11/25 10:16:08;;;;;;;13.93;9.82;;;8.30;76.90;;;;;;5056839;28;20029;-79
2021/11/25 10:18:35;;;;;;;10.93;9.52;;;8.30;76.80;;;;;;5056710;28;20029;-79
2021/11/25 10:21:09;;;;;;;12.15;9.63;;;8.30;76.80;;;;;;5055512;28;20056;-79
2021/11/25 10:23:36;;;;;;;11.15;9.27;;;8.30;76.90;;;;;;5072113;28;20052;-79
2021/11/25 10:26:11;;;;;;;12.32;9.93;;;8.40;76.90;;;;;;5056655;28;20121;-80
2021/11/25 10:28:44;;;;;;;;;;;8.30;76.90;;;;;;5055596;28;20032;-78
2021/11/25 10:31:15;;;;;;;9.73;8.23;;;8.40;76.80;;;;;;5055384;28;19909;-83
2021/11/25 10:33:54;;;;;;;11.40;9.35;;;8.40;76.70;;;;;;5056167;28;20052;-78
2021/11/25 10:36:33;;;;;;;12.80;9.30;;;8.40;77.00;;;;;;5055258;28;20040;-78
2021/11/25 10:42:00;;;;;;;11.90;9.30;;;8.40;77.00;;;;;;5055097;28;20048;-81
2021/11/25 10:44:27;;;;;;;11.85;9.90;;;8.40;76.90;;;;;;5056307;28;20045;-78
2021/11/25 10:46:54;;;;;;;11.25;9.02;;;8.40;77.00;;;;;;5056613;28;20033;-80
2021/11/25 10:49:59;;;;;;;12.68;10.02;;;8.40;77.00;;;;;;5055346;28;20028;-79
2021/11/25 10:52:40;;;;;;;11.88;9.38;;;8.40;77.10;;;;;;5054993;28;20033;-80
2021/11/25 10:55:15;;;;;;;12.45;9.70;;;8.40;77.00;;;;;;5055053;28;20033;-82
2021/11/25 10:57:44;;;;;;;;;;;8.40;77.00;;;;;;5056102;28;20037;-79
2021/11/25 11:00:25;;;;;;;11.35;8.30;;;8.50;76.90;;;;;;5055188;28;20375;-80
2021/11/25 11:03:23;;;;;;;12.00;9.25;;;8.50;76.90;;;;;;5056024;28;20025;-79
2021/11/25 11:05:56;;;;;;;11.32;9.00;;;8.40;77.00;;;;;;5055971;28;20064;-80
2021/11/25 11:08:24;;;;;;;11.60;9.60;;;8.40;77.50;;;;;;5056371;28;20029;-80
2021/11/25 11:11:04;;;;;;;12.90;9.85;;;8.40;77.00;;;;;;5055825;28;20032;-80
2021/11/25 11:13:36;;;;;;;11.32;9.18;;;8.50;77.10;;;;;;5054368;28;20029;-80
2021/11/25 11:18:56;;;;;;;11.77;9.95;;;8.50;77.00;;;;;;5056033;28;20040;-80
2021/11/25 11:21:45;;;;;;;13.05;9.68;;;8.50;77.10;;;;;;5054524;28;20029;-81
2021/11/25 11:24:20;;;;;;;10.90;9.35;;;8.50;77.10;;;;;;5054774;28;20462;-81
2021/11/25 11:26:50;;;;;;;12.07;9.32;;;8.60;77.00;;;;;;5054525;28;20041;-80
2021/11/25 11:29:20;;;;;;;11.90;9.40;;;8.60;77.00;;;;;;5054722;28;20028;-80
2021/11/25 11:31:49;;;;;;;12.75;10.00;;;8.60;77.00;;;;;;5054872;28;20029;-80
2021/11/25 11:34:17;;;;;;;11.95;9.60;;;8.60;77.00;;;;;;5055456;28;20025;-81
2021/11/25 11:36:48;;;;;;;12.30;9.98;;;8.60;77.00;;;;;;5071151;28;20115;-81
2021/11/25 11:39:18;;;;;;;12.38;9.75;;;8.70;77.00;;;;;;5054614;28;20053;-81
2021/11/25 11:41:47;;;;;;;12.10;8.95;;;8.70;77.00;;;;;;5054406;28;20170;-80
2021/11/25 11:44:13;;;;;;;12.35;9.73;;;8.70;77.00;;;;;;5053820;28;20032;-80
2021/11/25 11:46:41;;;;;;;12.43;9.70;;;8.70;76.90;;;;;;5053782;28;20033;-80
2021/11/25 11:49:07;;;;;;;10.98;9.27;;;8.80;77.00;;;;;;5054496;28;20025;-80
2021/11/25 11:51:34;;;;;;;12.13;9.85;;;8.70;76.90;;;;;;5054394;28;20136;-80
2021/11/25 11:54:02;;;;;;;11.80;9.60;;;8.80;77.00;;;;;;5053660;28;20025;-80
2021/11/25 11:56:40;;;;;;;11.93;9.52;;;8.80;76.90;;;;;;5054511;28;20035;-79
2021/11/25 11:59:07;;;;;;;12.15;9.43;;;8.80;77.00;;;;;;5054461;28;20025;-79
2021/11/25 12:01:33;;;;;;;10.77;8.77;;;8.80;76.90;;;;;;5053619;28;20048;-81
2021/11/25 12:04:08;;;;;;;12.50;9.77;;;8.80;76.90;;;;;;5037512;28;20057;-79
2021/11/25 12:06:37;;;;;;;12.10;9.73;;;8.90;77.00;;;;;;5053116;28;20120;-80
2021/11/25 12:09:23;;;;;;;11.70;9.18;;;8.90;76.90;;;;;;5070663;28;20036;-80
2021/11/25 12:11:50;;;;;;;12.30;9.68;;;8.90;77.00;;;;;;5047165;28;20481;-80
2021/11/25 12:14:29;;;;;;;11.95;9.07;;;8.90;76.80;;;;;;5054492;28;20036;-79
2021/11/25 12:17:07;;;;;;;13.88;10.25;;;8.90;76.90;;;;;;5054864;28;20121;-79
2021/11/25 12:19:45;;;;;;;13.20;9.15;;;8.90;76.90;;;;;;5053518;28;20025;-80
2021/11/25 12:22:14;;;;;;;10.48;8.13;;;8.90;76.80;;;;;;5053333;28;20028;-81
2021/11/25 12:24:55;;;;;;;11.57;9.07;;;9.00;76.90;;;;;;5052804;28;20488;-79
2021/11/25 12:27:29;;;;;;;12.30;9.60;;;9.00;77.00;;;;;;5053213;28;20033;-80
2021/11/25 12:30:05;;;;;;;12.05;9.52;;;9.00;76.90;;;;;;5054073;28;20185;-80
2021/11/25 12:32:43;;;;;;;10.95;8.52;;;9.00;76.90;;;;;;5052668;28;20033;-78
2021/11/25 12:35:15;;;;;;;11.55;9.00;;;9.00;76.90;;;;;;5052808;28;20033;-77
2021/11/25 12:37:41;;;;;;;13.02;10.07;;;9.00;76.80;;;;;;5052610;28;20045;-79
2021/11/25 12:40:28;;;;;;;13.43;9.63;;;9.10;76.90;;;;;;5054148;28;20029;-81
2021/11/25 12:42:58;;;;;;;13.00;9.48;;;9.10;76.90;;;;;;5054254;28;20090;-79
2021/11/25 12:45:27;;;;;;;12.73;9.77;;;9.10;76.80;;;;;;5052759;28;20120;-80
2021/11/25 12:48:04;;;;;;;11.55;9.23;;;9.10;76.80;;;;;;5052813;28;20094;-80
2021/11/25 12:50:33;;;;;;;11.30;9.15;;;9.10;76.90;;;;;;5052817;28;20557;-77
2021/11/25 12:53:10;;;;;;;11.27;10.00;;;9.10;76.80;;;;;;5052900;28;20104;-79
2021/11/25 12:55:37;;;;;;;11.57;9.25;;;9.20;76.90;;;;;;5053042;28;20527;-79
2021/11/25 12:58:04;;;;;;;12.77;10.20;;;9.20;76.80;;;;;;5069143;28;20485;-79
2021/11/25 13:00:33;;;;;;;13.32;9.95;;;9.20;76.80;;;;;;5053508;28;20057;-79